createdAt,value
2018-08-25T00:00:12.653Z,2.20
2018-08-25T00:02:40.811Z,2.50
2018-08-25T00:05:08.942Z,2.67
2018-08-25T00:07:37.102Z,2.57
2018-08-25T00:10:05.358Z,2.27
2018-08-25T00:12:33.505Z,2.17
2018-08-25T00:15:01.640Z,2.50
2018-08-25T00:17:29.782Z,2.53
2018-08-25T00:19:57.911Z,2.17
2018-08-25T00:22:26.069Z,2.20
2018-08-25T00:24:54.194Z,2.23
2018-08-25T00:27:22.330Z,2.40
2018-08-25T00:29:50.446Z,2.20
2018-08-25T00:32:18.661Z,2.20
2018-08-25T00:34:46.797Z,2.87
2018-08-25T00:37:14.935Z,2.87
2018-08-25T00:39:43.099Z,2.60
2018-08-25T00:42:11.241Z,2.80
2018-08-25T00:44:39.366Z,2.47
2018-08-25T00:47:07.505Z,2.43
2018-08-25T00:49:35.642Z,2.40
2018-08-25T00:52:03.769Z,2.67
2018-08-25T00:54:31.893Z,2.27
2018-08-25T00:57:00.066Z,2.20
2018-08-25T00:59:28.191Z,2.00
2018-08-25T01:01:56.333Z,2.00
2018-08-25T01:04:24.486Z,2.37
2018-08-25T01:06:52.643Z,2.10
2018-08-25T01:09:20.757Z,2.20
2018-08-25T01:11:48.886Z,2.40
2018-08-25T01:14:16.981Z,2.90
2018-08-25T01:16:45.085Z,1.87
2018-08-25T01:19:13.181Z,2.20
2018-08-25T01:21:41.296Z,2.23
2018-08-25T01:24:09.414Z,2.10
2018-08-25T01:26:37.550Z,1.80
2018-08-25T01:29:05.676Z,2.20
2018-08-25T01:31:33.795Z,2.07
2018-08-25T01:34:01.949Z,2.40
2018-08-25T01:36:30.095Z,2.73
2018-08-25T01:38:58.181Z,2.10
2018-08-25T01:41:26.285Z,2.50
2018-08-25T01:43:54.401Z,2.30
2018-08-25T01:46:22.519Z,2.37
2018-08-25T01:48:50.629Z,1.70
2018-08-25T01:51:18.732Z,2.27
2018-08-25T01:53:46.865Z,2.50
2018-08-25T01:56:14.964Z,2.20
2018-08-25T01:58:43.090Z,2.17
2018-08-25T02:01:11.197Z,2.27
2018-08-25T02:03:39.352Z,2.27
2018-08-25T02:06:07.456Z,2.10
2018-08-25T02:08:35.569Z,2.17
2018-08-25T02:11:03.672Z,1.90
2018-08-25T02:13:31.780Z,2.30
2018-08-25T02:15:59.892Z,2.33
2018-08-25T02:18:28.009Z,2.37
2018-08-25T02:20:56.138Z,2.00
2018-08-25T02:23:24.248Z,1.90
2018-08-25T02:25:52.357Z,2.20
2018-08-25T02:28:20.557Z,2.33
2018-08-25T02:30:48.602Z,2.80
2018-08-25T02:33:16.738Z,2.00
2018-08-25T02:35:44.848Z,2.13
2018-08-25T02:38:12.954Z,2.93
2018-08-25T02:40:41.058Z,2.23
2018-08-25T02:43:09.164Z,2.20
2018-08-25T02:45:37.282Z,1.83
2018-08-25T02:48:05.399Z,2.67
2018-08-25T02:50:33.512Z,2.50
2018-08-25T02:53:01.654Z,2.90
2018-08-25T02:55:29.758Z,2.40
2018-08-25T02:57:57.867Z,2.83
2018-08-25T03:00:26.019Z,2.87
2018-08-25T03:02:54.138Z,2.53
2018-08-25T03:05:22.266Z,2.40
2018-08-25T03:07:50.397Z,2.30
2018-08-25T03:10:18.517Z,2.57
2018-08-25T03:12:46.649Z,2.70
2018-08-25T03:15:14.780Z,2.37
2018-08-25T03:17:42.908Z,2.40
2018-08-25T03:20:11.033Z,2.33
2018-08-25T03:22:39.158Z,2.30
2018-08-25T03:25:07.325Z,2.37
2018-08-25T03:27:35.440Z,1.93
2018-08-25T03:30:03.603Z,2.40
2018-08-25T03:32:31.722Z,2.33
2018-08-25T03:34:59.853Z,2.50
2018-08-25T03:37:27.970Z,2.47
2018-08-25T03:39:56.103Z,2.40
2018-08-25T03:42:24.222Z,2.63
2018-08-25T03:44:52.354Z,2.50
2018-08-25T03:47:20.481Z,2.80
2018-08-25T03:49:48.603Z,2.17
2018-08-25T03:52:16.721Z,2.77
2018-08-25T03:54:44.843Z,2.63
2018-08-25T03:57:12.981Z,2.93
2018-08-25T03:59:41.117Z,2.30
2018-08-25T04:02:09.242Z,2.83
2018-08-25T04:04:37.369Z,3.13
2018-08-25T04:07:05.490Z,2.30
2018-08-25T04:09:33.614Z,2.50
2018-08-25T04:12:01.719Z,2.40
2018-08-25T04:14:29.858Z,2.33
2018-08-25T04:16:57.974Z,2.80
2018-08-25T04:19:26.097Z,3.50
2018-08-25T04:21:54.217Z,2.70
2018-08-25T04:24:22.322Z,2.80
2018-08-25T04:26:50.420Z,2.90
2018-08-25T04:29:18.524Z,2.70
2018-08-25T04:31:46.641Z,2.70
2018-08-25T04:34:14.762Z,2.50
2018-08-25T04:36:42.861Z,2.70
2018-08-25T04:39:12.000Z,3.20
2018-08-25T04:41:40.113Z,2.43
2018-08-25T04:44:08.561Z,2.50
2018-08-25T04:46:36.674Z,2.40
2018-08-25T04:49:05.063Z,2.53
2018-08-25T04:51:33.174Z,2.50
2018-08-25T04:54:01.281Z,2.33
2018-08-25T04:56:29.389Z,2.30
2018-08-25T04:58:57.530Z,2.90
2018-08-25T05:01:25.657Z,2.13
2018-08-25T05:03:53.775Z,2.80
2018-08-25T05:06:21.893Z,2.33
2018-08-25T05:08:49.997Z,2.33
2018-08-25T05:11:18.113Z,2.43
2018-08-25T05:13:46.221Z,2.60
2018-08-25T05:16:14.352Z,2.53
2018-08-25T05:18:42.458Z,2.23
2018-08-25T05:21:10.577Z,2.30
2018-08-25T05:23:38.683Z,2.40
2018-08-25T05:26:06.793Z,2.60
2018-08-25T05:28:34.905Z,2.17
2018-08-25T05:31:03.029Z,2.53
2018-08-25T05:33:31.154Z,2.40
2018-08-25T05:35:59.276Z,2.70
2018-08-25T05:38:27.384Z,2.30
2018-08-25T05:40:56.350Z,2.23
2018-08-25T05:43:24.462Z,2.03
2018-08-25T05:45:52.581Z,2.13
2018-08-25T05:48:20.784Z,2.60
2018-08-25T05:50:48.895Z,2.03
2018-08-25T05:53:17.033Z,2.53
2018-08-25T05:55:45.169Z,1.80
2018-08-25T05:58:13.313Z,2.00
2018-08-25T06:00:41.430Z,2.37
2018-08-25T06:03:09.541Z,1.93
2018-08-25T06:05:37.666Z,2.07
2018-08-25T06:08:05.789Z,1.83
2018-08-25T06:10:33.913Z,1.80
2018-08-25T06:13:02.018Z,1.90
2018-08-25T06:15:30.142Z,2.00
2018-08-25T06:17:58.242Z,1.90
2018-08-25T06:20:26.358Z,1.80
2018-08-25T06:22:54.549Z,2.00
2018-08-25T06:25:22.726Z,1.30
2018-08-25T06:27:50.885Z,1.93
2018-08-25T06:30:19.192Z,1.63
2018-08-25T06:32:47.337Z,1.93
2018-08-25T06:35:15.453Z,1.80
2018-08-25T06:37:43.593Z,2.07
2018-08-25T06:40:11.731Z,1.90
2018-08-25T06:42:39.941Z,1.70
2018-08-25T06:45:08.015Z,1.70
2018-08-25T06:47:37.216Z,1.77
2018-08-25T06:50:05.492Z,1.90
2018-08-25T06:52:33.662Z,1.50
2018-08-25T06:55:01.775Z,1.67
2018-08-25T06:57:29.890Z,1.50
2018-08-25T06:59:58.002Z,1.47
2018-08-25T07:02:26.160Z,1.80
2018-08-25T07:04:54.342Z,1.80
2018-08-25T07:07:22.504Z,1.80
2018-08-25T07:09:50.678Z,1.53
2018-08-25T07:12:18.817Z,1.70
2018-08-25T07:21:51.990Z,1.80
2018-08-25T07:24:20.155Z,1.63
2018-08-25T07:26:48.361Z,1.80
2018-08-25T07:29:16.513Z,1.73
2018-08-25T07:31:44.693Z,1.70
2018-08-25T07:34:12.859Z,1.80
2018-08-25T07:36:41.012Z,1.87
2018-08-25T07:39:10.933Z,1.77
2018-08-25T07:41:39.069Z,1.70
2018-08-25T07:44:07.193Z,2.70
2018-08-25T07:46:35.325Z,1.50
2018-08-25T07:49:03.453Z,2.00
2018-08-25T07:51:31.581Z,1.40
2018-08-25T07:53:59.706Z,1.80
2018-08-25T07:56:27.833Z,1.50
2018-08-25T07:58:55.969Z,1.70
2018-08-25T08:01:24.201Z,1.43
2018-08-25T08:03:52.334Z,1.40
2018-08-25T08:06:20.481Z,1.93
2018-08-25T08:08:48.584Z,1.37
2018-08-25T08:11:16.703Z,1.20
2018-08-25T08:13:44.825Z,1.70
2018-08-25T08:16:12.941Z,1.03
2018-08-25T08:18:41.055Z,1.60
2018-08-25T08:21:09.169Z,1.53
2018-08-25T08:23:37.293Z,1.43
2018-08-25T08:26:05.401Z,1.27
2018-08-25T08:28:33.542Z,1.30
2018-08-25T08:31:01.650Z,1.23
2018-08-25T08:33:29.786Z,1.07
2018-08-25T08:35:57.893Z,1.40
2018-08-25T08:38:26.029Z,0.97
2018-08-25T08:40:54.174Z,1.20
2018-08-25T08:43:22.289Z,1.20
2018-08-25T08:45:50.410Z,1.00
2018-08-25T08:48:18.526Z,1.20
2018-08-25T08:50:46.638Z,1.00
2018-08-25T08:53:14.764Z,1.60
2018-08-25T08:55:42.942Z,1.20
2018-08-25T08:58:11.123Z,1.00
2018-08-25T09:00:39.166Z,0.90
2018-08-25T09:03:07.276Z,1.30
2018-08-25T09:05:35.413Z,1.53
2018-08-25T09:08:03.533Z,1.10
2018-08-25T09:10:31.629Z,1.63
2018-08-25T09:13:00.022Z,1.17
2018-08-25T09:15:28.132Z,1.27
2018-08-25T09:17:56.294Z,1.50
2018-08-25T09:20:24.388Z,1.30
2018-08-25T09:22:52.505Z,1.00
2018-08-25T09:25:20.610Z,1.00
2018-08-25T09:27:48.725Z,1.30
2018-08-25T09:30:16.825Z,1.20
2018-08-25T09:32:44.945Z,1.30
2018-08-25T09:35:13.058Z,1.37
2018-08-25T09:37:41.182Z,1.77
2018-08-25T09:40:09.285Z,1.43
2018-08-25T09:42:37.403Z,1.60
2018-08-25T09:45:05.542Z,1.63
2018-08-25T09:47:34.628Z,1.50
2018-08-25T09:50:02.831Z,1.90
2018-08-25T09:52:30.935Z,1.50
2018-08-25T09:54:59.053Z,1.70
2018-08-25T09:57:27.166Z,1.60
2018-08-25T09:59:55.286Z,1.63
2018-08-25T10:02:23.393Z,1.70
2018-08-25T10:04:51.532Z,1.47
2018-08-25T10:07:19.672Z,1.50
2018-08-25T10:09:47.802Z,1.70
2018-08-25T10:12:15.921Z,1.67
2018-08-25T10:14:44.070Z,1.30
2018-08-25T10:17:12.203Z,1.30
2018-08-25T10:19:40.347Z,1.70
2018-08-25T10:22:08.464Z,1.60
2018-08-25T10:24:36.599Z,1.60
2018-08-25T10:27:04.729Z,1.77
2018-08-25T10:29:32.853Z,2.00
2018-08-25T10:32:01.012Z,1.57
2018-08-25T10:34:29.174Z,1.50
2018-08-25T10:36:57.301Z,1.33
2018-08-25T10:39:25.439Z,1.40
2018-08-25T10:41:53.748Z,1.67
2018-08-25T10:44:21.713Z,1.60
2018-08-25T10:46:49.834Z,2.00
2018-08-25T10:49:17.962Z,2.13
2018-08-25T10:51:46.097Z,2.20
2018-08-25T10:54:14.233Z,1.90
2018-08-25T10:56:42.354Z,1.83
2018-08-25T10:59:10.480Z,2.30
2018-08-25T11:01:38.593Z,1.97
2018-08-25T11:04:06.726Z,2.27
2018-08-25T11:06:34.837Z,2.33
2018-08-25T11:09:03.209Z,2.50
2018-08-25T11:11:31.327Z,2.30
2018-08-25T11:13:59.454Z,2.53
2018-08-25T11:16:27.625Z,2.73
2018-08-25T11:18:55.693Z,2.20
2018-08-25T11:21:23.784Z,2.57
2018-08-25T11:23:51.985Z,2.57
2018-08-25T11:26:19.996Z,2.57
2018-08-25T11:28:48.112Z,2.97
2018-08-25T11:31:16.226Z,3.17
2018-08-25T11:33:44.970Z,2.33
2018-08-25T11:36:13.072Z,2.13
2018-08-25T11:38:41.186Z,2.00
2018-08-25T11:41:09.310Z,2.17
2018-08-25T11:43:37.437Z,2.30
2018-08-25T11:46:05.578Z,2.17
2018-08-25T11:48:33.834Z,2.37
2018-08-25T11:51:01.940Z,1.73
2018-08-25T11:53:30.047Z,2.00
2018-08-25T11:55:58.162Z,2.20
2018-08-25T11:58:26.274Z,2.23
2018-08-25T12:00:54.390Z,2.37
2018-08-25T12:03:22.502Z,2.17
2018-08-25T12:05:50.619Z,2.17
2018-08-25T12:08:18.717Z,2.07
2018-08-25T12:10:46.894Z,1.93
2018-08-25T12:13:14.962Z,1.77
2018-08-25T12:15:43.084Z,2.30
2018-08-25T12:18:11.218Z,2.30
2018-08-25T12:20:39.330Z,1.77
2018-08-25T12:23:07.445Z,2.27
2018-08-25T12:25:35.574Z,1.93
2018-08-25T12:28:03.685Z,2.03
2018-08-25T12:30:31.847Z,2.10
2018-08-25T12:32:59.938Z,2.60
2018-08-25T12:35:28.107Z,2.40
2018-08-25T12:37:56.219Z,2.57
2018-08-25T12:40:24.334Z,2.20
2018-08-25T12:42:52.428Z,2.07
2018-08-25T12:45:20.547Z,2.30
2018-08-25T12:47:48.657Z,2.00
2018-08-25T12:50:16.788Z,2.00
2018-08-25T12:52:44.918Z,2.37
2018-08-25T12:55:13.107Z,2.60
2018-08-25T12:57:41.226Z,2.77
2018-08-25T13:00:09.405Z,2.90
2018-08-25T13:02:37.587Z,3.40
2018-08-25T13:05:05.764Z,3.33
2018-08-25T13:07:33.951Z,3.40
2018-08-25T13:10:02.025Z,3.30
2018-08-25T13:12:30.166Z,4.10
2018-08-25T13:14:58.362Z,3.60
2018-08-25T13:17:26.485Z,3.80
2018-08-25T13:19:54.659Z,3.73
2018-08-25T13:22:22.754Z,3.90
2018-08-25T13:24:50.904Z,4.00
2018-08-25T13:27:19.017Z,3.73
2018-08-25T13:29:47.145Z,3.90
2018-08-25T13:32:15.282Z,3.77
2018-08-25T13:34:43.396Z,4.30
2018-08-25T13:37:11.542Z,3.47
2018-08-25T13:39:39.661Z,2.97
2018-08-25T13:42:07.797Z,3.47
2018-08-25T13:44:35.922Z,2.93
2018-08-25T13:47:04.053Z,2.87
2018-08-25T13:49:32.228Z,3.50
2018-08-25T13:52:01.054Z,3.40
2018-08-25T13:54:29.673Z,3.67
2018-08-25T13:56:57.901Z,3.10
2018-08-25T13:59:26.033Z,3.10
2018-08-25T14:01:54.169Z,3.23
2018-08-25T14:04:22.350Z,2.77
2018-08-25T14:06:50.478Z,3.37
2018-08-25T14:09:18.602Z,3.20
2018-08-25T14:11:46.716Z,2.50
2018-08-25T14:14:14.834Z,3.13
2018-08-25T14:16:42.949Z,3.10
2018-08-25T14:19:11.061Z,2.70
2018-08-25T14:21:39.508Z,2.33
2018-08-25T14:24:07.653Z,2.30
2018-08-25T14:26:35.769Z,1.73
2018-08-25T14:29:03.882Z,1.83
2018-08-25T14:31:31.996Z,2.20
2018-08-25T14:34:00.113Z,1.97
2018-08-25T14:36:28.242Z,2.00
2018-08-25T14:38:56.362Z,1.63
2018-08-25T14:41:24.485Z,1.73
2018-08-25T14:43:52.602Z,2.10
2018-08-25T14:46:20.721Z,2.27
2018-08-25T14:48:48.881Z,2.10
2018-08-25T14:51:17.045Z,1.97
2018-08-25T14:53:45.162Z,2.20
2018-08-25T14:56:13.285Z,2.10
2018-08-25T14:58:41.388Z,2.03
2018-08-25T15:01:09.511Z,2.13
2018-08-25T15:03:37.621Z,2.00
2018-08-25T15:06:05.742Z,2.33
2018-08-25T15:08:33.858Z,2.53
2018-08-25T15:11:01.970Z,2.80
2018-08-25T15:13:30.097Z,2.30
2018-08-25T15:15:58.202Z,2.90
2018-08-25T15:18:26.326Z,2.47
2018-08-25T15:20:54.437Z,3.00
2018-08-25T15:23:22.643Z,1.97
2018-08-25T15:25:50.762Z,1.90
2018-08-25T15:28:18.908Z,2.60
2018-08-25T15:30:47.006Z,2.10
2018-08-25T15:33:15.138Z,2.10
2018-08-25T15:35:43.245Z,2.53
2018-08-25T15:38:11.365Z,1.90
2018-08-25T15:40:39.502Z,2.17
2018-08-25T15:43:07.617Z,1.93
2018-08-25T15:45:35.717Z,1.50
2018-08-25T15:48:03.825Z,1.70
2018-08-25T15:50:31.926Z,1.67
2018-08-25T15:53:00.045Z,1.43
2018-08-25T15:55:28.258Z,1.37
2018-08-25T15:57:56.705Z,1.60
2018-08-25T16:00:24.662Z,1.60
2018-08-25T16:02:52.772Z,1.30
2018-08-25T16:05:20.933Z,1.30
2018-08-25T16:07:49.101Z,1.30
2018-08-25T16:10:17.217Z,0.97
2018-08-25T16:12:45.350Z,1.10
2018-08-25T16:15:13.493Z,0.80
2018-08-25T16:17:41.721Z,0.90
2018-08-25T16:20:09.920Z,0.83
2018-08-25T16:22:37.982Z,0.90
2018-08-25T16:25:06.322Z,0.70
2018-08-25T16:27:34.494Z,0.80
2018-08-25T16:30:02.605Z,0.73
2018-08-25T16:32:30.722Z,1.10
2018-08-25T16:34:58.842Z,0.70
2018-08-25T16:37:26.986Z,0.80
2018-08-25T16:39:55.138Z,0.80
2018-08-25T16:42:23.278Z,0.80
2018-08-25T16:44:51.650Z,0.80
2018-08-25T16:47:19.805Z,0.80
2018-08-25T16:49:47.978Z,1.10
2018-08-25T16:52:16.114Z,0.90
2018-08-25T16:54:44.233Z,0.70
2018-08-25T16:57:12.361Z,1.00
2018-08-25T16:59:40.589Z,1.27
2018-08-25T17:02:08.847Z,1.20
2018-08-25T17:04:36.985Z,1.00
2018-08-25T17:07:05.193Z,1.50
2018-08-25T17:09:33.318Z,1.20
2018-08-25T17:12:01.462Z,1.60
2018-08-25T17:14:29.581Z,1.50
2018-08-25T17:16:57.693Z,1.63
2018-08-25T17:19:25.855Z,1.57
2018-08-25T17:21:53.960Z,1.70
2018-08-25T17:24:22.073Z,2.60
2018-08-25T17:26:50.248Z,2.43
2018-08-25T17:29:18.325Z,2.40
2018-08-25T17:31:46.490Z,2.63
2018-08-25T17:34:14.651Z,2.70
2018-08-25T17:36:42.994Z,2.43
2018-08-25T17:39:11.901Z,2.00
2018-08-25T17:41:40.261Z,1.90
2018-08-25T17:44:08.763Z,1.90
2018-08-25T17:46:36.921Z,1.83
2018-08-25T17:49:05.615Z,1.90
2018-08-25T17:51:33.746Z,1.33
2018-08-25T17:54:01.897Z,1.43
2018-08-25T17:56:30.046Z,1.50
2018-08-25T17:58:58.174Z,1.87
2018-08-25T18:01:26.277Z,1.60
2018-08-25T18:03:54.411Z,1.57
2018-08-25T18:06:22.533Z,1.23
2018-08-25T18:08:50.653Z,1.10
2018-08-25T18:11:18.781Z,1.20
2018-08-25T18:13:46.905Z,1.10
2018-08-25T18:16:15.074Z,1.10
2018-08-25T18:18:43.195Z,1.13
2018-08-25T18:21:11.333Z,0.90
2018-08-25T18:23:39.542Z,1.13
2018-08-25T18:26:07.901Z,1.00
2018-08-25T18:28:36.033Z,1.03
2018-08-25T18:31:04.209Z,1.10
2018-08-25T18:33:32.367Z,1.00
2018-08-25T18:36:00.493Z,1.17
2018-08-25T18:38:28.625Z,1.20
2018-08-25T18:40:56.750Z,1.00
2018-08-25T18:43:24.869Z,1.13
2018-08-25T18:45:52.998Z,1.10
2018-08-25T18:48:21.234Z,1.07
2018-08-25T18:50:49.250Z,1.33
2018-08-25T18:53:17.369Z,1.20
2018-08-25T18:55:45.998Z,1.20
2018-08-25T18:58:14.246Z,1.30
2018-08-25T19:00:42.458Z,1.10
2018-08-25T19:03:11.630Z,1.00
2018-08-25T19:05:39.818Z,1.10
2018-08-25T19:08:07.976Z,1.10
2018-08-25T19:10:36.154Z,1.00
2018-08-25T19:13:04.356Z,1.03
2018-08-25T19:15:32.507Z,1.30
2018-08-25T19:18:00.674Z,1.27
2018-08-25T19:20:28.894Z,1.17
2018-08-25T19:22:57.034Z,1.20
2018-08-25T19:25:25.199Z,1.17
2018-08-25T19:27:53.313Z,1.20
2018-08-25T19:30:21.559Z,1.17
2018-08-25T19:32:49.730Z,1.30
2018-08-25T19:35:18.057Z,1.00
2018-08-25T19:37:46.260Z,1.00
2018-08-25T19:40:14.443Z,1.17
2018-08-25T19:42:42.617Z,1.00
2018-08-25T19:45:10.789Z,1.10
2018-08-25T19:47:38.941Z,1.03
2018-08-25T19:50:07.073Z,1.10
2018-08-25T19:52:35.191Z,1.20
2018-08-25T19:55:03.316Z,1.40
2018-08-25T19:57:31.451Z,1.33
2018-08-25T19:59:59.748Z,1.37
2018-08-25T20:02:27.865Z,1.57
2018-08-25T20:04:55.991Z,1.27
2018-08-25T20:07:24.103Z,1.40
2018-08-25T20:09:52.235Z,1.20
2018-08-25T20:12:20.337Z,1.37
2018-08-25T20:14:48.444Z,1.50
2018-08-25T20:17:16.604Z,1.40
2018-08-25T20:19:44.682Z,1.40
2018-08-25T20:22:12.818Z,1.50
2018-08-25T20:24:41.030Z,1.33
2018-08-25T20:27:09.182Z,1.37
2018-08-25T20:29:37.290Z,1.23
2018-08-25T20:32:05.482Z,1.50
2018-08-25T20:34:33.591Z,1.40
2018-08-25T20:37:01.970Z,1.33
2018-08-25T20:39:30.073Z,1.27
2018-08-25T20:41:58.214Z,1.30
2018-08-25T20:44:26.317Z,1.43
2018-08-25T20:46:54.457Z,1.50
2018-08-25T20:49:22.556Z,1.30
2018-08-25T20:51:50.672Z,1.47
2018-08-25T20:54:18.821Z,1.60
2018-08-25T20:56:46.951Z,1.30
2018-08-25T20:59:15.055Z,1.60
2018-08-25T21:01:43.166Z,1.50
2018-08-25T21:04:11.320Z,1.47
2018-08-25T21:06:39.518Z,1.70
2018-08-25T21:09:08.745Z,1.90
2018-08-25T21:11:36.865Z,2.10
2018-08-25T21:14:06.013Z,2.07
2018-08-25T21:16:34.189Z,2.00
2018-08-25T21:19:02.732Z,2.33
2018-08-25T21:21:30.858Z,2.27
2018-08-25T21:23:58.986Z,2.37
2018-08-25T21:26:27.166Z,2.57
2018-08-25T21:28:55.285Z,2.60
2018-08-25T21:31:23.417Z,2.60
2018-08-25T21:33:51.537Z,2.23
2018-08-25T21:36:19.670Z,2.40
2018-08-25T21:38:47.792Z,3.00
2018-08-25T21:41:15.929Z,3.07
2018-08-25T21:43:44.538Z,3.00
2018-08-25T21:46:12.709Z,2.90
2018-08-25T21:48:40.833Z,2.90
2018-08-25T21:51:09.012Z,2.77
2018-08-25T21:53:37.093Z,3.20
2018-08-25T21:56:05.216Z,3.40
2018-08-25T21:58:33.343Z,2.90
2018-08-25T22:01:01.493Z,2.73
2018-08-25T22:03:29.607Z,3.63
2018-08-25T22:05:57.766Z,3.50
2018-08-25T22:08:25.999Z,3.40
2018-08-25T22:10:54.497Z,3.30
2018-08-25T22:13:22.790Z,3.50
2018-08-25T22:15:51.014Z,3.77
2018-08-25T22:18:19.646Z,4.07
2018-08-25T22:20:47.769Z,4.50
2018-08-25T22:23:15.905Z,3.60
2018-08-25T22:25:44.021Z,3.93
2018-08-25T22:28:12.150Z,4.53
2018-08-25T22:30:40.274Z,4.67
2018-08-25T22:33:08.404Z,4.17
2018-08-25T22:35:36.530Z,4.67
2018-08-25T22:38:04.709Z,3.70
2018-08-25T22:40:32.829Z,3.87
2018-08-25T22:43:01.615Z,3.80
2018-08-25T22:45:29.760Z,3.67
2018-08-25T22:47:57.908Z,3.70
2018-08-25T22:50:26.049Z,3.60
2018-08-25T22:52:54.187Z,3.57
2018-08-25T22:55:23.267Z,3.20
2018-08-25T22:57:51.668Z,3.40
2018-08-25T23:00:20.445Z,3.50
2018-08-25T23:02:48.599Z,3.60
2018-08-25T23:05:16.733Z,3.70
2018-08-25T23:07:44.864Z,3.00
2018-08-25T23:10:12.969Z,3.27
2018-08-25T23:12:41.102Z,3.70
2018-08-25T23:15:09.246Z,3.17
2018-08-25T23:17:37.362Z,3.53
2018-08-25T23:20:05.473Z,3.67
2018-08-25T23:22:33.589Z,4.40
2018-08-25T23:25:01.699Z,3.57
2018-08-25T23:27:29.857Z,3.87
2018-08-25T23:29:57.977Z,3.57
2018-08-25T23:32:26.114Z,3.23
2018-08-25T23:34:54.225Z,3.60
2018-08-25T23:37:22.358Z,4.03
2018-08-25T23:39:50.461Z,4.40
2018-08-25T23:42:18.606Z,3.73
2018-08-25T23:44:46.688Z,4.50
2018-08-25T23:47:14.801Z,4.13
2018-08-25T23:49:42.947Z,4.90
2018-08-25T23:52:11.205Z,4.13
2018-08-25T23:54:39.355Z,5.10
2018-08-25T23:57:07.460Z,5.13
2018-08-25T23:59:35.587Z,4.50
